sensor_id;sensor_type;location;lat;lon;timestamp;P1;durP1;ratioP1;P2;durP2;ratioP2
6209;SDS011;3138;52.550;13.148;2023-08-07T00:00:24;23.93;;;5.77;;
6209;SDS011;3138;52.550;13.148;2023-08-07T00:02:51;29.97;;;5.70;;
6209;SDS011;3138;52.550;13.148;2023-08-07T00:05:18;5.37;;;4.87;;
6209;SDS011;3138;52.550;13.148;2023-08-07T00:07:46;12.30;;;5.90;;
6209;SDS011;3138;52.550;13.148;2023-08-07T00:10:13;9.17;;;5.00;;
6209;SDS011;3138;52.550;13.148;2023-08-07T00:12:40;13.90;;;4.97;;
6209;SDS011;3138;52.550;13.148;2023-08-07T00:15:08;8.83;;;5.30;;
6209;SDS011;3138;52.550;13.148;2023-08-07T00:17:36;12.77;;;7.37;;
6209;SDS011;3138;52.550;13.148;2023-08-07T00:20:03;20.13;;;5.60;;
6209;SDS011;3138;52.550;13.148;2023-08-07T00:22:31;5.87;;;5.10;;
6209;SDS011;3138;52.550;13.148;2023-08-07T00:24:59;13.30;;;5.83;;
6209;SDS011;3138;52.550;13.148;2023-08-07T00:27:26;11.80;;;6.10;;
6209;SDS011;3138;52.550;13.148;2023-08-07T00:29:53;11.33;;;5.70;;
6209;SDS011;3138;52.550;13.148;2023-08-07T00:32:19;11.90;;;5.57;;
6209;SDS011;3138;52.550;13.148;2023-08-07T00:34:46;13.67;;;6.60;;
6209;SDS011;3138;52.550;13.148;2023-08-07T00:37:13;7.93;;;5.57;;
6209;SDS011;3138;52.550;13.148;2023-08-07T00:39:40;19.43;;;6.50;;
6209;SDS011;3138;52.550;13.148;2023-08-07T00:42:08;7.40;;;5.20;;
6209;SDS011;3138;52.550;13.148;2023-08-07T00:44:35;6.80;;;4.63;;
6209;SDS011;3138;52.550;13.148;2023-08-07T00:47:02;9.60;;;5.20;;
6209;SDS011;3138;52.550;13.148;2023-08-07T00:49:29;7.40;;;5.50;;
6209;SDS011;3138;52.550;13.148;2023-08-07T00:51:56;7.77;;;5.73;;
6209;SDS011;3138;52.550;13.148;2023-08-07T00:54:23;9.03;;;5.00;;
6209;SDS011;3138;52.550;13.148;2023-08-07T00:56:51;17.93;;;5.60;;
6209;SDS011;3138;52.550;13.148;2023-08-07T00:59:20;13.03;;;5.57;;
6209;SDS011;3138;52.550;13.148;2023-08-07T01:01:47;12.10;;;5.37;;
6209;SDS011;3138;52.550;13.148;2023-08-07T01:04:15;11.23;;;6.57;;
6209;SDS011;3138;52.550;13.148;2023-08-07T01:06:42;13.67;;;6.00;;
6209;SDS011;3138;52.550;13.148;2023-08-07T01:09:09;8.53;;;5.73;;
6209;SDS011;3138;52.550;13.148;2023-08-07T01:11:39;18.87;;;5.03;;
6209;SDS011;3138;52.550;13.148;2023-08-07T01:14:13;6.20;;;5.67;;
6209;SDS011;3138;52.550;13.148;2023-08-07T01:16:52;6.10;;;5.40;;
6209;SDS011;3138;52.550;13.148;2023-08-07T01:19:24;7.80;;;4.63;;
6209;SDS011;3138;52.550;13.148;2023-08-07T01:22:04;8.47;;;5.50;;
6209;SDS011;3138;52.550;13.148;2023-08-07T01:24:32;14.30;;;4.93;;
6209;SDS011;3138;52.550;13.148;2023-08-07T01:27:00;6.53;;;4.20;;
6209;SDS011;3138;52.550;13.148;2023-08-07T01:29:35;14.23;;;5.53;;
6209;SDS011;3138;52.550;13.148;2023-08-07T01:32:03;6.07;;;5.47;;
6209;SDS011;3138;52.550;13.148;2023-08-07T01:34:34;9.57;;;5.90;;
6209;SDS011;3138;52.550;13.148;2023-08-07T01:37:04;9.93;;;5.97;;
6209;SDS011;3138;52.550;13.148;2023-08-07T01:39:33;7.57;;;4.70;;
6209;SDS011;3138;52.550;13.148;2023-08-07T01:42:03;9.70;;;5.10;;
6209;SDS011;3138;52.550;13.148;2023-08-07T01:44:30;15.10;;;6.80;;
6209;SDS011;3138;52.550;13.148;2023-08-07T01:46:57;9.93;;;5.13;;
6209;SDS011;3138;52.550;13.148;2023-08-07T01:49:24;20.23;;;5.97;;
6209;SDS011;3138;52.550;13.148;2023-08-07T01:51:51;9.50;;;6.07;;
6209;SDS011;3138;52.550;13.148;2023-08-07T01:54:19;8.57;;;4.77;;
6209;SDS011;3138;52.550;13.148;2023-08-07T01:56:46;19.63;;;5.27;;
6209;SDS011;3138;52.550;13.148;2023-08-07T01:59:12;12.00;;;6.07;;
6209;SDS011;3138;52.550;13.148;2023-08-07T02:01:39;10.70;;;5.17;;
6209;SDS011;3138;52.550;13.148;2023-08-07T02:04:06;12.43;;;6.00;;
6209;SDS011;3138;52.550;13.148;2023-08-07T02:06:33;9.00;;;5.80;;
6209;SDS011;3138;52.550;13.148;2023-08-07T02:09:00;7.37;;;5.47;;
6209;SDS011;3138;52.550;13.148;2023-08-07T02:11:28;14.70;;;7.10;;
6209;SDS011;3138;52.550;13.148;2023-08-07T02:13:55;6.73;;;5.87;;
6209;SDS011;3138;52.550;13.148;2023-08-07T02:16:21;13.67;;;6.23;;
6209;SDS011;3138;52.550;13.148;2023-08-07T02:18:48;18.43;;;6.60;;
6209;SDS011;3138;52.550;13.148;2023-08-07T02:21:15;15.13;;;6.83;;
6209;SDS011;3138;52.550;13.148;2023-08-07T02:23:42;10.67;;;6.60;;
6209;SDS011;3138;52.550;13.148;2023-08-07T02:26:09;18.30;;;7.70;;
6209;SDS011;3138;52.550;13.148;2023-08-07T02:28:37;16.50;;;6.93;;
6209;SDS011;3138;52.550;13.148;2023-08-07T02:31:04;25.90;;;7.80;;
6209;SDS011;3138;52.550;13.148;2023-08-07T02:33:31;13.03;;;7.57;;
6209;SDS011;3138;52.550;13.148;2023-08-07T02:35:58;11.97;;;7.87;;
6209;SDS011;3138;52.550;13.148;2023-08-07T02:38:25;14.37;;;7.53;;
6209;SDS011;3138;52.550;13.148;2023-08-07T02:40:52;16.10;;;8.43;;
6209;SDS011;3138;52.550;13.148;2023-08-07T02:43:18;24.73;;;8.40;;
6209;SDS011;3138;52.550;13.148;2023-08-07T02:45:47;19.83;;;8.10;;
6209;SDS011;3138;52.550;13.148;2023-08-07T02:48:13;20.63;;;7.60;;
6209;SDS011;3138;52.550;13.148;2023-08-07T02:50:40;12.77;;;7.57;;
6209;SDS011;3138;52.550;13.148;2023-08-07T02:53:07;11.83;;;9.13;;
6209;SDS011;3138;52.550;13.148;2023-08-07T02:55:34;9.90;;;7.10;;
6209;SDS011;3138;52.550;13.148;2023-08-07T02:58:00;11.00;;;9.10;;
6209;SDS011;3138;52.550;13.148;2023-08-07T03:00:27;19.13;;;7.97;;
6209;SDS011;3138;52.550;13.148;2023-08-07T03:02:55;10.40;;;8.07;;
6209;SDS011;3138;52.550;13.148;2023-08-07T03:05:22;19.13;;;8.07;;
6209;SDS011;3138;52.550;13.148;2023-08-07T03:07:49;10.63;;;8.17;;
6209;SDS011;3138;52.550;13.148;2023-08-07T03:10:16;16.63;;;8.37;;
6209;SDS011;3138;52.550;13.148;2023-08-07T03:12:43;23.77;;;8.90;;
6209;SDS011;3138;52.550;13.148;2023-08-07T03:15:10;26.57;;;10.50;;
6209;SDS011;3138;52.550;13.148;2023-08-07T03:17:37;15.80;;;8.53;;
6209;SDS011;3138;52.550;13.148;2023-08-07T03:20:05;18.63;;;10.97;;
6209;SDS011;3138;52.550;13.148;2023-08-07T03:22:33;20.30;;;9.90;;
6209;SDS011;3138;52.550;13.148;2023-08-07T03:25:00;13.73;;;8.90;;
6209;SDS011;3138;52.550;13.148;2023-08-07T03:27:27;14.27;;;8.77;;
6209;SDS011;3138;52.550;13.148;2023-08-07T03:29:54;26.00;;;10.33;;
6209;SDS011;3138;52.550;13.148;2023-08-07T03:32:21;18.97;;;9.50;;
6209;SDS011;3138;52.550;13.148;2023-08-07T03:34:48;18.10;;;10.67;;
6209;SDS011;3138;52.550;13.148;2023-08-07T03:37:16;11.70;;;8.83;;
6209;SDS011;3138;52.550;13.148;2023-08-07T03:39:43;13.73;;;10.33;;
6209;SDS011;3138;52.550;13.148;2023-08-07T03:42:13;26.67;;;10.20;;
6209;SDS011;3138;52.550;13.148;2023-08-07T03:44:40;14.80;;;9.90;;
6209;SDS011;3138;52.550;13.148;2023-08-07T03:47:07;12.97;;;8.33;;
6209;SDS011;3138;52.550;13.148;2023-08-07T03:49:34;32.37;;;8.60;;
6209;SDS011;3138;52.550;13.148;2023-08-07T03:52:01;20.83;;;9.30;;
6209;SDS011;3138;52.550;13.148;2023-08-07T03:54:29;15.23;;;8.10;;
6209;SDS011;3138;52.550;13.148;2023-08-07T03:56:56;35.23;;;9.10;;
6209;SDS011;3138;52.550;13.148;2023-08-07T03:59:23;17.57;;;8.77;;
6209;SDS011;3138;52.550;13.148;2023-08-07T04:01:50;14.23;;;7.03;;
6209;SDS011;3138;52.550;13.148;2023-08-07T04:04:17;31.67;;;8.40;;
6209;SDS011;3138;52.550;13.148;2023-08-07T04:06:43;21.47;;;8.80;;
6209;SDS011;3138;52.550;13.148;2023-08-07T04:09:10;16.40;;;9.57;;
6209;SDS011;3138;52.550;13.148;2023-08-07T04:11:39;10.20;;;7.63;;
6209;SDS011;3138;52.550;13.148;2023-08-07T04:14:06;21.70;;;8.90;;
6209;SDS011;3138;52.550;13.148;2023-08-07T04:16:33;10.97;;;7.97;;
6209;SDS011;3138;52.550;13.148;2023-08-07T04:19:02;13.10;;;7.50;;
6209;SDS011;3138;52.550;13.148;2023-08-07T04:21:29;9.30;;;7.23;;
6209;SDS011;3138;52.550;13.148;2023-08-07T04:23:56;14.87;;;8.37;;
6209;SDS011;3138;52.550;13.148;2023-08-07T04:26:25;13.13;;;7.77;;
6209;SDS011;3138;52.550;13.148;2023-08-07T04:28:53;12.77;;;7.83;;
6209;SDS011;3138;52.550;13.148;2023-08-07T04:31:20;12.77;;;7.20;;
6209;SDS011;3138;52.550;13.148;2023-08-07T04:33:46;10.20;;;7.20;;
6209;SDS011;3138;52.550;13.148;2023-08-07T04:36:13;20.60;;;7.67;;
6209;SDS011;3138;52.550;13.148;2023-08-07T04:38:39;10.50;;;7.03;;
6209;SDS011;3138;52.550;13.148;2023-08-07T04:41:06;14.00;;;6.70;;
6209;SDS011;3138;52.550;13.148;2023-08-07T04:43:33;9.77;;;6.90;;
6209;SDS011;3138;52.550;13.148;2023-08-07T04:46:01;8.67;;;7.03;;
6209;SDS011;3138;52.550;13.148;2023-08-07T04:48:28;14.43;;;6.73;;
6209;SDS011;3138;52.550;13.148;2023-08-07T04:50:56;18.30;;;7.10;;
6209;SDS011;3138;52.550;13.148;2023-08-07T04:53:23;11.30;;;6.60;;
6209;SDS011;3138;52.550;13.148;2023-08-07T04:55:50;10.83;;;7.10;;
6209;SDS011;3138;52.550;13.148;2023-08-07T04:58:17;7.43;;;6.10;;
6209;SDS011;3138;52.550;13.148;2023-08-07T05:00:44;10.07;;;6.40;;
6209;SDS011;3138;52.550;13.148;2023-08-07T05:03:12;14.73;;;7.57;;
6209;SDS011;3138;52.550;13.148;2023-08-07T05:05:40;8.80;;;6.17;;
6209;SDS011;3138;52.550;13.148;2023-08-07T05:08:07;6.43;;;5.33;;
6209;SDS011;3138;52.550;13.148;2023-08-07T05:10:34;6.37;;;5.27;;
6209;SDS011;3138;52.550;13.148;2023-08-07T05:13:00;8.00;;;5.60;;
6209;SDS011;3138;52.550;13.148;2023-08-07T05:15:27;9.13;;;5.10;;
6209;SDS011;3138;52.550;13.148;2023-08-07T05:17:56;7.70;;;5.23;;
6209;SDS011;3138;52.550;13.148;2023-08-07T05:20:24;9.00;;;5.63;;
6209;SDS011;3138;52.550;13.148;2023-08-07T05:22:51;6.10;;;4.87;;
6209;SDS011;3138;52.550;13.148;2023-08-07T05:25:18;11.23;;;4.87;;
6209;SDS011;3138;52.550;13.148;2023-08-07T05:27:45;17.77;;;5.20;;
6209;SDS011;3138;52.550;13.148;2023-08-07T05:30:12;12.90;;;5.27;;
6209;SDS011;3138;52.550;13.148;2023-08-07T05:32:39;10.70;;;4.97;;
6209;SDS011;3138;52.550;13.148;2023-08-07T05:35:07;16.93;;;5.90;;
6209;SDS011;3138;52.550;13.148;2023-08-07T05:37:36;11.07;;;5.83;;
6209;SDS011;3138;52.550;13.148;2023-08-07T05:40:04;9.33;;;3.90;;
6209;SDS011;3138;52.550;13.148;2023-08-07T05:42:32;15.43;;;5.50;;
6209;SDS011;3138;52.550;13.148;2023-08-07T05:44:59;17.27;;;4.90;;
6209;SDS011;3138;52.550;13.148;2023-08-07T05:47:26;8.80;;;5.50;;
6209;SDS011;3138;52.550;13.148;2023-08-07T05:49:53;8.57;;;4.20;;
6209;SDS011;3138;52.550;13.148;2023-08-07T05:52:20;5.60;;;4.07;;
6209;SDS011;3138;52.550;13.148;2023-08-07T05:54:48;11.53;;;4.60;;
6209;SDS011;3138;52.550;13.148;2023-08-07T05:57:15;7.73;;;4.20;;
6209;SDS011;3138;52.550;13.148;2023-08-07T05:59:43;7.20;;;4.43;;
6209;SDS011;3138;52.550;13.148;2023-08-07T06:02:10;7.50;;;4.30;;
6209;SDS011;3138;52.550;13.148;2023-08-07T06:04:37;5.70;;;4.47;;
6209;SDS011;3138;52.550;13.148;2023-08-07T06:07:04;4.23;;;3.93;;
6209;SDS011;3138;52.550;13.148;2023-08-07T06:09:32;6.73;;;4.37;;
6209;SDS011;3138;52.550;13.148;2023-08-07T06:12:00;8.83;;;3.90;;
6209;SDS011;3138;52.550;13.148;2023-08-07T06:14:27;5.40;;;4.67;;
6209;SDS011;3138;52.550;13.148;2023-08-07T06:16:54;3.30;;;3.03;;
6209;SDS011;3138;52.550;13.148;2023-08-07T06:19:23;23.83;;;4.43;;
6209;SDS011;3138;52.550;13.148;2023-08-07T06:21:52;4.03;;;3.13;;
6209;SDS011;3138;52.550;13.148;2023-08-07T06:24:18;9.70;;;3.53;;
6209;SDS011;3138;52.550;13.148;2023-08-07T06:26:45;5.90;;;3.20;;
6209;SDS011;3138;52.550;13.148;2023-08-07T06:29:13;3.57;;;2.97;;
6209;SDS011;3138;52.550;13.148;2023-08-07T06:31:40;10.43;;;4.37;;
6209;SDS011;3138;52.550;13.148;2023-08-07T06:34:07;9.63;;;3.20;;
6209;SDS011;3138;52.550;13.148;2023-08-07T06:36:35;8.63;;;3.63;;
6209;SDS011;3138;52.550;13.148;2023-08-07T06:39:02;22.47;;;3.57;;
6209;SDS011;3138;52.550;13.148;2023-08-07T06:41:29;5.60;;;3.00;;
6209;SDS011;3138;52.550;13.148;2023-08-07T06:43:56;6.27;;;3.00;;
6209;SDS011;3138;52.550;13.148;2023-08-07T06:46:24;4.13;;;2.57;;
6209;SDS011;3138;52.550;13.148;2023-08-07T06:48:52;7.43;;;3.20;;
6209;SDS011;3138;52.550;13.148;2023-08-07T06:51:19;6.03;;;3.50;;
6209;SDS011;3138;52.550;13.148;2023-08-07T06:53:46;8.43;;;2.90;;
6209;SDS011;3138;52.550;13.148;2023-08-07T06:56:13;6.40;;;2.60;;
6209;SDS011;3138;52.550;13.148;2023-08-07T06:58:40;3.40;;;2.57;;
6209;SDS011;3138;52.550;13.148;2023-08-07T07:01:06;6.10;;;2.40;;
6209;SDS011;3138;52.550;13.148;2023-08-07T07:03:35;15.00;;;2.67;;
6209;SDS011;3138;52.550;13.148;2023-08-07T07:06:01;9.50;;;2.60;;
6209;SDS011;3138;52.550;13.148;2023-08-07T07:08:28;4.63;;;2.57;;
6209;SDS011;3138;52.550;13.148;2023-08-07T07:10:55;14.93;;;2.93;;
6209;SDS011;3138;52.550;13.148;2023-08-07T07:13:23;4.27;;;2.30;;
6209;SDS011;3138;52.550;13.148;2023-08-07T07:15:52;5.23;;;2.70;;
6209;SDS011;3138;52.550;13.148;2023-08-07T07:18:20;9.73;;;2.57;;
6209;SDS011;3138;52.550;13.148;2023-08-07T07:20:48;6.43;;;2.90;;
6209;SDS011;3138;52.550;13.148;2023-08-07T07:23:22;3.57;;;3.00;;
6209;SDS011;3138;52.550;13.148;2023-08-07T07:25:49;6.77;;;2.23;;
6209;SDS011;3138;52.550;13.148;2023-08-07T07:28:16;8.27;;;2.33;;
6209;SDS011;3138;52.550;13.148;2023-08-07T07:30:43;13.03;;;2.57;;
6209;SDS011;3138;52.550;13.148;2023-08-07T07:33:09;11.10;;;2.10;;
6209;SDS011;3138;52.550;13.148;2023-08-07T07:35:38;10.00;;;2.90;;
6209;SDS011;3138;52.550;13.148;2023-08-07T07:38:07;5.47;;;2.30;;
6209;SDS011;3138;52.550;13.148;2023-08-07T07:40:35;11.47;;;3.27;;
6209;SDS011;3138;52.550;13.148;2023-08-07T07:43:02;3.33;;;2.60;;
6209;SDS011;3138;52.550;13.148;2023-08-07T07:45:29;5.50;;;2.50;;
6209;SDS011;3138;52.550;13.148;2023-08-07T07:47:58;20.23;;;2.70;;
6209;SDS011;3138;52.550;13.148;2023-08-07T07:50:25;23.23;;;2.90;;
6209;SDS011;3138;52.550;13.148;2023-08-07T07:52:52;10.50;;;3.50;;
6209;SDS011;3138;52.550;13.148;2023-08-07T07:55:20;8.10;;;2.70;;
6209;SDS011;3138;52.550;13.148;2023-08-07T07:57:47;7.10;;;2.87;;
6209;SDS011;3138;52.550;13.148;2023-08-07T08:00:14;7.67;;;3.00;;
6209;SDS011;3138;52.550;13.148;2023-08-07T08:02:41;5.70;;;2.93;;
6209;SDS011;3138;52.550;13.148;2023-08-07T08:05:09;4.40;;;2.70;;
6209;SDS011;3138;52.550;13.148;2023-08-07T08:07:37;20.33;;;3.67;;
6209;SDS011;3138;52.550;13.148;2023-08-07T08:10:05;8.43;;;3.03;;
6209;SDS011;3138;52.550;13.148;2023-08-07T08:12:35;9.40;;;2.70;;
6209;SDS011;3138;52.550;13.148;2023-08-07T08:15:02;2.93;;;2.67;;
6209;SDS011;3138;52.550;13.148;2023-08-07T08:17:29;6.60;;;3.17;;
6209;SDS011;3138;52.550;13.148;2023-08-07T08:19:57;9.10;;;2.70;;
6209;SDS011;3138;52.550;13.148;2023-08-07T08:22:24;5.47;;;3.20;;
6209;SDS011;3138;52.550;13.148;2023-08-07T08:24:51;6.47;;;2.97;;
6209;SDS011;3138;52.550;13.148;2023-08-07T08:27:17;4.67;;;2.93;;
6209;SDS011;3138;52.550;13.148;2023-08-07T08:29:46;12.70;;;3.80;;
6209;SDS011;3138;52.550;13.148;2023-08-07T08:32:13;8.27;;;3.03;;
6209;SDS011;3138;52.550;13.148;2023-08-07T08:34:39;5.00;;;2.67;;
6209;SDS011;3138;52.550;13.148;2023-08-07T08:37:06;8.20;;;2.87;;
6209;SDS011;3138;52.550;13.148;2023-08-07T08:39:35;8.00;;;2.73;;
6209;SDS011;3138;52.550;13.148;2023-08-07T08:42:02;7.70;;;2.40;;
6209;SDS011;3138;52.550;13.148;2023-08-07T08:44:30;4.53;;;2.00;;
6209;SDS011;3138;52.550;13.148;2023-08-07T08:47:03;9.80;;;2.53;;
6209;SDS011;3138;52.550;13.148;2023-08-07T08:49:33;4.90;;;2.30;;
6209;SDS011;3138;52.550;13.148;2023-08-07T08:52:03;8.60;;;3.00;;
6209;SDS011;3138;52.550;13.148;2023-08-07T08:54:31;22.47;;;2.40;;
6209;SDS011;3138;52.550;13.148;2023-08-07T08:56:59;5.33;;;2.30;;
6209;SDS011;3138;52.550;13.148;2023-08-07T08:59:26;8.37;;;2.57;;
6209;SDS011;3138;52.550;13.148;2023-08-07T09:01:53;2.97;;;2.77;;
6209;SDS011;3138;52.550;13.148;2023-08-07T09:04:22;12.47;;;2.37;;
6209;SDS011;3138;52.550;13.148;2023-08-07T09:06:49;25.07;;;2.30;;
6209;SDS011;3138;52.550;13.148;2023-08-07T09:09:16;9.30;;;2.70;;
6209;SDS011;3138;52.550;13.148;2023-08-07T09:11:46;15.13;;;2.73;;
6209;SDS011;3138;52.550;13.148;2023-08-07T09:14:15;7.47;;;2.90;;
6209;SDS011;3138;52.550;13.148;2023-08-07T09:19:11;12.13;;;2.67;;
6209;SDS011;3138;52.550;13.148;2023-08-07T09:21:39;7.40;;;2.57;;
6209;SDS011;3138;52.550;13.148;2023-08-07T09:24:06;7.53;;;2.70;;
6209;SDS011;3138;52.550;13.148;2023-08-07T09:26:33;4.60;;;2.40;;
6209;SDS011;3138;52.550;13.148;2023-08-07T09:28:59;4.97;;;2.07;;
6209;SDS011;3138;52.550;13.148;2023-08-07T09:31:28;4.53;;;2.13;;
6209;SDS011;3138;52.550;13.148;2023-08-07T09:34:00;6.33;;;2.43;;
6209;SDS011;3138;52.550;13.148;2023-08-07T09:36:29;8.00;;;2.20;;
6209;SDS011;3138;52.550;13.148;2023-08-07T09:38:58;2.23;;;1.87;;
6209;SDS011;3138;52.550;13.148;2023-08-07T09:41:27;4.50;;;2.17;;
6209;SDS011;3138;52.550;13.148;2023-08-07T09:43:55;8.20;;;2.13;;
6209;SDS011;3138;52.550;13.148;2023-08-07T09:46:22;5.23;;;2.33;;
6209;SDS011;3138;52.550;13.148;2023-08-07T09:48:51;29.33;;;2.30;;
6209;SDS011;3138;52.550;13.148;2023-08-07T09:51:18;3.10;;;1.47;;
6209;SDS011;3138;52.550;13.148;2023-08-07T09:53:46;6.03;;;1.80;;
6209;SDS011;3138;52.550;13.148;2023-08-07T09:56:14;6.27;;;1.90;;
6209;SDS011;3138;52.550;13.148;2023-08-07T09:58:43;6.00;;;2.23;;
6209;SDS011;3138;52.550;13.148;2023-08-07T10:01:13;10.60;;;2.20;;
6209;SDS011;3138;52.550;13.148;2023-08-07T10:03:43;6.43;;;1.93;;
6209;SDS011;3138;52.550;13.148;2023-08-07T10:06:11;11.90;;;2.17;;
6209;SDS011;3138;52.550;13.148;2023-08-07T10:08:38;10.13;;;2.20;;
6209;SDS011;3138;52.550;13.148;2023-08-07T10:11:08;1.60;;;1.50;;
6209;SDS011;3138;52.550;13.148;2023-08-07T10:13:36;4.10;;;1.93;;
6209;SDS011;3138;52.550;13.148;2023-08-07T10:16:03;7.13;;;2.67;;
6209;SDS011;3138;52.550;13.148;2023-08-07T10:18:30;4.43;;;1.67;;
6209;SDS011;3138;52.550;13.148;2023-08-07T10:20:57;3.43;;;1.87;;
6209;SDS011;3138;52.550;13.148;2023-08-07T10:23:25;4.80;;;1.90;;
6209;SDS011;3138;52.550;13.148;2023-08-07T10:25:52;6.77;;;1.57;;
6209;SDS011;3138;52.550;13.148;2023-08-07T10:28:21;3.43;;;1.90;;
6209;SDS011;3138;52.550;13.148;2023-08-07T10:30:51;4.00;;;1.27;;
6209;SDS011;3138;52.550;13.148;2023-08-07T10:33:18;4.20;;;1.80;;
6209;SDS011;3138;52.550;13.148;2023-08-07T10:35:46;3.83;;;2.10;;
6209;SDS011;3138;52.550;13.148;2023-08-07T10:38:14;5.37;;;1.80;;
6209;SDS011;3138;52.550;13.148;2023-08-07T10:41:00;5.80;;;1.87;;
6209;SDS011;3138;52.550;13.148;2023-08-07T10:43:28;3.93;;;1.97;;
6209;SDS011;3138;52.550;13.148;2023-08-07T10:46:01;6.37;;;1.80;;
6209;SDS011;3138;52.550;13.148;2023-08-07T10:48:30;4.63;;;1.80;;
6209;SDS011;3138;52.550;13.148;2023-08-07T10:51:04;4.10;;;1.63;;
6209;SDS011;3138;52.550;13.148;2023-08-07T10:53:32;3.03;;;2.20;;
6209;SDS011;3138;52.550;13.148;2023-08-07T10:56:01;5.03;;;2.23;;
6209;SDS011;3138;52.550;13.148;2023-08-07T10:58:29;3.40;;;2.40;;
6209;SDS011;3138;52.550;13.148;2023-08-07T11:03:44;9.83;;;2.67;;
6209;SDS011;3138;52.550;13.148;2023-08-07T11:06:11;6.00;;;1.93;;
6209;SDS011;3138;52.550;13.148;2023-08-07T11:08:38;10.57;;;1.93;;
6209;SDS011;3138;52.550;13.148;2023-08-07T11:11:05;6.90;;;2.20;;
6209;SDS011;3138;52.550;13.148;2023-08-07T11:13:32;3.43;;;2.20;;
6209;SDS011;3138;52.550;13.148;2023-08-07T11:16:00;5.50;;;2.63;;
6209;SDS011;3138;52.550;13.148;2023-08-07T11:18:29;3.90;;;2.10;;
6209;SDS011;3138;52.550;13.148;2023-08-07T11:20:57;3.50;;;2.20;;
6209;SDS011;3138;52.550;13.148;2023-08-07T11:23:24;11.37;;;3.23;;
6209;SDS011;3138;52.550;13.148;2023-08-07T11:25:52;8.43;;;2.30;;
6209;SDS011;3138;52.550;13.148;2023-08-07T11:28:19;6.70;;;2.43;;
6209;SDS011;3138;52.550;13.148;2023-08-07T11:30:46;3.27;;;2.63;;
6209;SDS011;3138;52.550;13.148;2023-08-07T11:33:16;8.53;;;2.93;;
6209;SDS011;3138;52.550;13.148;2023-08-07T11:35:45;10.30;;;3.67;;
6209;SDS011;3138;52.550;13.148;2023-08-07T11:38:12;9.83;;;3.40;;
6209;SDS011;3138;52.550;13.148;2023-08-07T11:40:39;6.93;;;2.70;;
6209;SDS011;3138;52.550;13.148;2023-08-07T11:43:06;13.70;;;3.10;;
6209;SDS011;3138;52.550;13.148;2023-08-07T11:45:32;2.27;;;2.07;;
6209;SDS011;3138;52.550;13.148;2023-08-07T11:47:59;5.33;;;2.50;;
6209;SDS011;3138;52.550;13.148;2023-08-07T11:50:27;6.43;;;2.80;;
6209;SDS011;3138;52.550;13.148;2023-08-07T11:52:56;5.53;;;2.70;;
6209;SDS011;3138;52.550;13.148;2023-08-07T11:55:27;6.73;;;2.03;;
6209;SDS011;3138;52.550;13.148;2023-08-07T11:57:55;11.13;;;2.93;;
6209;SDS011;3138;52.550;13.148;2023-08-07T12:00:24;5.50;;;2.43;;
6209;SDS011;3138;52.550;13.148;2023-08-07T12:02:52;2.77;;;1.70;;
6209;SDS011;3138;52.550;13.148;2023-08-07T12:05:19;4.83;;;1.90;;
6209;SDS011;3138;52.550;13.148;2023-08-07T12:07:47;2.63;;;2.30;;
6209;SDS011;3138;52.550;13.148;2023-08-07T12:10:15;6.90;;;2.00;;
6209;SDS011;3138;52.550;13.148;2023-08-07T12:12:42;2.33;;;2.00;;
6209;SDS011;3138;52.550;13.148;2023-08-07T12:15:09;5.17;;;2.00;;
6209;SDS011;3138;52.550;13.148;2023-08-07T12:17:36;11.63;;;3.00;;
6209;SDS011;3138;52.550;13.148;2023-08-07T12:20:04;11.43;;;2.50;;
6209;SDS011;3138;52.550;13.148;2023-08-07T12:22:35;11.73;;;3.00;;
6209;SDS011;3138;52.550;13.148;2023-08-07T12:25:02;3.00;;;1.87;;
6209;SDS011;3138;52.550;13.148;2023-08-07T12:27:31;7.90;;;1.93;;
6209;SDS011;3138;52.550;13.148;2023-08-07T12:29:58;7.40;;;2.97;;
6209;SDS011;3138;52.550;13.148;2023-08-07T12:32:25;8.63;;;2.50;;
6209;SDS011;3138;52.550;13.148;2023-08-07T12:34:51;10.17;;;3.00;;
6209;SDS011;3138;52.550;13.148;2023-08-07T12:37:18;6.40;;;2.60;;
6209;SDS011;3138;52.550;13.148;2023-08-07T12:39:45;8.77;;;3.23;;
6209;SDS011;3138;52.550;13.148;2023-08-07T12:42:12;10.80;;;3.10;;
6209;SDS011;3138;52.550;13.148;2023-08-07T12:44:40;9.70;;;3.10;;
6209;SDS011;3138;52.550;13.148;2023-08-07T12:47:08;13.00;;;2.70;;
6209;SDS011;3138;52.550;13.148;2023-08-07T12:49:35;6.70;;;2.70;;
6209;SDS011;3138;52.550;13.148;2023-08-07T12:52:02;9.80;;;2.67;;
6209;SDS011;3138;52.550;13.148;2023-08-07T12:54:29;11.10;;;2.70;;
6209;SDS011;3138;52.550;13.148;2023-08-07T12:56:57;5.13;;;2.10;;
6209;SDS011;3138;52.550;13.148;2023-08-07T12:59:24;13.67;;;3.00;;
6209;SDS011;3138;52.550;13.148;2023-08-07T13:01:52;20.63;;;3.50;;
6209;SDS011;3138;52.550;13.148;2023-08-07T13:04:19;7.03;;;3.10;;
6209;SDS011;3138;52.550;13.148;2023-08-07T13:06:46;18.50;;;3.13;;
6209;SDS011;3138;52.550;13.148;2023-08-07T13:09:14;12.53;;;3.60;;
6209;SDS011;3138;52.550;13.148;2023-08-07T13:11:41;10.77;;;3.43;;
6209;SDS011;3138;52.550;13.148;2023-08-07T13:14:08;22.27;;;2.60;;
6209;SDS011;3138;52.550;13.148;2023-08-07T13:16:34;11.40;;;3.00;;
6209;SDS011;3138;52.550;13.148;2023-08-07T13:19:03;15.17;;;3.37;;
6209;SDS011;3138;52.550;13.148;2023-08-07T13:21:29;19.27;;;2.57;;
6209;SDS011;3138;52.550;13.148;2023-08-07T13:23:56;13.33;;;2.70;;
6209;SDS011;3138;52.550;13.148;2023-08-07T13:26:23;13.93;;;2.60;;
6209;SDS011;3138;52.550;13.148;2023-08-07T13:28:50;7.57;;;3.17;;
6209;SDS011;3138;52.550;13.148;2023-08-07T13:31:17;2.80;;;2.07;;
6209;SDS011;3138;52.550;13.148;2023-08-07T13:33:44;18.77;;;2.37;;
6209;SDS011;3138;52.550;13.148;2023-08-07T13:36:12;11.97;;;3.03;;
6209;SDS011;3138;52.550;13.148;2023-08-07T13:38:38;7.53;;;1.90;;
6209;SDS011;3138;52.550;13.148;2023-08-07T13:41:05;5.47;;;2.37;;
6209;SDS011;3138;52.550;13.148;2023-08-07T13:43:32;16.43;;;3.83;;
6209;SDS011;3138;52.550;13.148;2023-08-07T13:45:59;4.50;;;2.47;;
6209;SDS011;3138;52.550;13.148;2023-08-07T13:48:26;12.10;;;3.17;;
6209;SDS011;3138;52.550;13.148;2023-08-07T13:50:53;8.50;;;3.20;;
6209;SDS011;3138;52.550;13.148;2023-08-07T13:53:21;8.33;;;3.00;;
6209;SDS011;3138;52.550;13.148;2023-08-07T13:55:54;11.70;;;3.33;;
6209;SDS011;3138;52.550;13.148;2023-08-07T13:58:20;19.23;;;3.03;;
6209;SDS011;3138;52.550;13.148;2023-08-07T14:00:47;3.80;;;2.10;;
6209;SDS011;3138;52.550;13.148;2023-08-07T14:03:14;23.03;;;3.60;;
6209;SDS011;3138;52.550;13.148;2023-08-07T14:05:41;12.93;;;3.07;;
6209;SDS011;3138;52.550;13.148;2023-08-07T14:08:08;15.30;;;3.53;;
6209;SDS011;3138;52.550;13.148;2023-08-07T14:10:37;9.70;;;2.57;;
6209;SDS011;3138;52.550;13.148;2023-08-07T14:13:06;23.03;;;3.23;;
6209;SDS011;3138;52.550;13.148;2023-08-07T14:15:33;19.40;;;4.07;;
6209;SDS011;3138;52.550;13.148;2023-08-07T14:17:59;16.77;;;3.63;;
6209;SDS011;3138;52.550;13.148;2023-08-07T14:20:26;14.97;;;2.73;;
6209;SDS011;3138;52.550;13.148;2023-08-07T14:22:53;19.23;;;2.93;;
6209;SDS011;3138;52.550;13.148;2023-08-07T14:25:20;20.70;;;3.30;;
6209;SDS011;3138;52.550;13.148;2023-08-07T14:27:48;8.70;;;3.27;;
6209;SDS011;3138;52.550;13.148;2023-08-07T14:30:15;28.73;;;2.90;;
6209;SDS011;3138;52.550;13.148;2023-08-07T14:32:42;15.07;;;4.03;;
6209;SDS011;3138;52.550;13.148;2023-08-07T14:35:11;20.13;;;4.13;;
6209;SDS011;3138;52.550;13.148;2023-08-07T14:37:38;13.97;;;2.67;;
6209;SDS011;3138;52.550;13.148;2023-08-07T14:40:06;6.40;;;2.90;;
6209;SDS011;3138;52.550;13.148;2023-08-07T14:42:34;11.07;;;3.50;;
6209;SDS011;3138;52.550;13.148;2023-08-07T14:45:02;8.17;;;2.80;;
6209;SDS011;3138;52.550;13.148;2023-08-07T14:47:29;11.33;;;3.33;;
6209;SDS011;3138;52.550;13.148;2023-08-07T14:49:56;13.30;;;3.40;;
6209;SDS011;3138;52.550;13.148;2023-08-07T14:52:23;17.37;;;3.77;;
6209;SDS011;3138;52.550;13.148;2023-08-07T14:54:50;39.53;;;3.70;;
6209;SDS011;3138;52.550;13.148;2023-08-07T14:57:18;15.30;;;2.97;;
6209;SDS011;3138;52.550;13.148;2023-08-07T14:59:45;6.37;;;2.50;;
6209;SDS011;3138;52.550;13.148;2023-08-07T15:02:13;14.93;;;2.80;;